sensor_id;sensor_type;location;lat;lon;timestamp;P1;durP1;ratioP1;P2;durP2;ratioP2
21334;SDS011;69435;52.670;13.544;2023-04-25T00:02:34;6.97;;;3.53;;
21334;SDS011;69435;52.670;13.544;2023-04-25T00:09:27;3.33;;;2.77;;
21334;SDS011;69435;52.670;13.544;2023-04-25T00:12:13;3.40;;;3.10;;
21334;SDS011;69435;52.670;13.544;2023-04-25T00:15:05;3.53;;;3.03;;
21334;SDS011;69435;52.670;13.544;2023-04-25T00:17:52;2.97;;;2.30;;
21334;SDS011;69435;52.670;13.544;2023-04-25T00:20:44;4.60;;;2.60;;
21334;SDS011;69435;52.670;13.544;2023-04-25T00:23:33;2.83;;;2.53;;
21334;SDS011;69435;52.670;13.544;2023-04-25T00:55:11;3.77;;;2.17;;
21334;SDS011;69435;52.670;13.544;2023-04-25T00:58:02;7.73;;;2.63;;
21334;SDS011;69435;52.670;13.544;2023-04-25T01:00:51;2.80;;;2.30;;
21334;SDS011;69435;52.670;13.544;2023-04-25T01:03:55;2.77;;;2.30;;
21334;SDS011;69435;52.670;13.544;2023-04-25T01:42:53;5.10;;;3.00;;
21334;SDS011;69435;52.670;13.544;2023-04-25T01:45:42;4.20;;;3.10;;
21334;SDS011;69435;52.670;13.544;2023-04-25T01:48:28;6.73;;;2.83;;
21334;SDS011;69435;52.670;13.544;2023-04-25T01:51:18;5.10;;;2.60;;
21334;SDS011;69435;52.670;13.544;2023-04-25T01:54:04;7.93;;;2.93;;
21334;SDS011;69435;52.670;13.544;2023-04-25T02:00:52;4.93;;;2.90;;
21334;SDS011;69435;52.670;13.544;2023-04-25T02:03:38;4.57;;;2.97;;
21334;SDS011;69435;52.670;13.544;2023-04-25T02:09:50;4.70;;;2.60;;
21334;SDS011;69435;52.670;13.544;2023-04-25T02:12:42;5.13;;;3.20;;
21334;SDS011;69435;52.670;13.544;2023-04-25T02:15:28;9.07;;;2.90;;
21334;SDS011;69435;52.670;13.544;2023-04-25T02:18:15;4.00;;;2.87;;
21334;SDS011;69435;52.670;13.544;2023-04-25T02:25:06;5.83;;;3.00;;
21334;SDS011;69435;52.670;13.544;2023-04-25T03:05:55;8.47;;;3.57;;
21334;SDS011;69435;52.670;13.544;2023-04-25T04:44:49;5.50;;;3.90;;
21334;SDS011;69435;52.670;13.544;2023-04-25T04:47:37;7.40;;;4.23;;
21334;SDS011;69435;52.670;13.544;2023-04-25T04:50:24;6.33;;;3.30;;
21334;SDS011;69435;52.670;13.544;2023-04-25T04:53:15;6.50;;;3.80;;
21334;SDS011;69435;52.670;13.544;2023-04-25T04:56:16;5.27;;;3.43;;
21334;SDS011;69435;52.670;13.544;2023-04-25T04:59:11;6.13;;;3.33;;
21334;SDS011;69435;52.670;13.544;2023-04-25T05:35:44;5.63;;;3.50;;
21334;SDS011;69435;52.670;13.544;2023-04-25T05:43:41;6.90;;;3.40;;
21334;SDS011;69435;52.670;13.544;2023-04-25T05:46:34;5.73;;;3.80;;
21334;SDS011;69435;52.670;13.544;2023-04-25T05:52:01;6.53;;;3.80;;
21334;SDS011;69435;52.670;13.544;2023-04-25T05:54:53;5.10;;;3.63;;
21334;SDS011;69435;52.670;13.544;2023-04-25T05:57:41;8.27;;;3.90;;
21334;SDS011;69435;52.670;13.544;2023-04-25T06:13:29;11.07;;;4.30;;
21334;SDS011;69435;52.670;13.544;2023-04-25T06:20:20;5.47;;;3.77;;
21334;SDS011;69435;52.670;13.544;2023-04-25T06:27:14;6.37;;;3.90;;
21334;SDS011;69435;52.670;13.544;2023-04-25T06:40:28;7.50;;;4.30;;
21334;SDS011;69435;52.670;13.544;2023-04-25T06:43:14;13.07;;;4.90;;
21334;SDS011;69435;52.670;13.544;2023-04-25T06:46:08;13.50;;;4.73;;
21334;SDS011;69435;52.670;13.544;2023-04-25T06:48:56;12.53;;;4.20;;
21334;SDS011;69435;52.670;13.544;2023-04-25T06:51:46;6.97;;;5.10;;
21334;SDS011;69435;52.670;13.544;2023-04-25T06:54:33;5.47;;;3.90;;
21334;SDS011;69435;52.670;13.544;2023-04-25T06:57:20;8.70;;;4.60;;
21334;SDS011;69435;52.670;13.544;2023-04-25T07:00:06;6.50;;;3.97;;
21334;SDS011;69435;52.670;13.544;2023-04-25T07:06:16;4.93;;;4.13;;
21334;SDS011;69435;52.670;13.544;2023-04-25T07:12:15;6.63;;;3.90;;
21334;SDS011;69435;52.670;13.544;2023-04-25T07:15:05;6.30;;;4.10;;
21334;SDS011;69435;52.670;13.544;2023-04-25T07:17:57;5.23;;;4.17;;
21334;SDS011;69435;52.670;13.544;2023-04-25T07:21:06;4.87;;;3.90;;
21334;SDS011;69435;52.670;13.544;2023-04-25T07:27:24;5.47;;;3.77;;
21334;SDS011;69435;52.670;13.544;2023-04-25T07:30:16;5.40;;;3.70;;
21334;SDS011;69435;52.670;13.544;2023-04-25T07:36:12;7.47;;;3.80;;
21334;SDS011;69435;52.670;13.544;2023-04-25T07:39:01;6.53;;;3.33;;
21334;SDS011;69435;52.670;13.544;2023-04-25T07:41:49;7.63;;;3.93;;
21334;SDS011;69435;52.670;13.544;2023-04-25T07:51:37;5.30;;;3.17;;
21334;SDS011;69435;52.670;13.544;2023-04-25T08:00:14;10.43;;;3.60;;
21334;SDS011;69435;52.670;13.544;2023-04-25T08:03:31;9.03;;;3.47;;
21334;SDS011;69435;52.670;13.544;2023-04-25T08:06:25;12.47;;;3.93;;
21334;SDS011;69435;52.670;13.544;2023-04-25T08:09:16;15.37;;;4.50;;
21334;SDS011;69435;52.670;13.544;2023-04-25T08:19:21;10.60;;;3.90;;
21334;SDS011;69435;52.670;13.544;2023-04-25T08:25:50;9.77;;;3.73;;
21334;SDS011;69435;52.670;13.544;2023-04-25T08:32:44;12.77;;;3.77;;
21334;SDS011;69435;52.670;13.544;2023-04-25T08:35:47;13.80;;;3.50;;
21334;SDS011;69435;52.670;13.544;2023-04-25T08:38:35;12.73;;;3.80;;
21334;SDS011;69435;52.670;13.544;2023-04-25T08:41:26;11.73;;;4.20;;
21334;SDS011;69435;52.670;13.544;2023-04-25T08:50:16;7.83;;;3.43;;
21334;SDS011;69435;52.670;13.544;2023-04-25T08:57:21;10.60;;;3.33;;
21334;SDS011;69435;52.670;13.544;2023-04-25T09:00:35;9.97;;;2.73;;
21334;SDS011;69435;52.670;13.544;2023-04-25T09:03:49;13.40;;;3.63;;
21334;SDS011;69435;52.670;13.544;2023-04-25T09:14:29;7.20;;;2.87;;
21334;SDS011;69435;52.670;13.544;2023-04-25T09:21:21;11.40;;;3.07;;
21334;SDS011;69435;52.670;13.544;2023-04-25T09:27:25;10.67;;;3.23;;
21334;SDS011;69435;52.670;13.544;2023-04-25T09:30:15;4.47;;;2.60;;
21334;SDS011;69435;52.670;13.544;2023-04-25T09:33:16;10.77;;;2.60;;
21334;SDS011;69435;52.670;13.544;2023-04-25T09:44:43;12.97;;;2.93;;
21334;SDS011;69435;52.670;13.544;2023-04-25T09:47:30;12.00;;;2.83;;
21334;SDS011;69435;52.670;13.544;2023-04-25T10:04:16;9.13;;;2.70;;
21334;SDS011;69435;52.670;13.544;2023-04-25T10:11:07;3.80;;;2.07;;
21334;SDS011;69435;52.670;13.544;2023-04-25T10:13:54;4.77;;;2.10;;
21334;SDS011;69435;52.670;13.544;2023-04-25T10:16:41;8.13;;;2.47;;
21334;SDS011;69435;52.670;13.544;2023-04-25T10:19:41;10.30;;;2.57;;
21334;SDS011;69435;52.670;13.544;2023-04-25T10:38:17;4.67;;;1.90;;
21334;SDS011;69435;52.670;13.544;2023-04-25T10:41:08;5.27;;;2.20;;
21334;SDS011;69435;52.670;13.544;2023-04-25T10:44:16;4.30;;;2.17;;
21334;SDS011;69435;52.670;13.544;2023-04-25T10:47:10;8.67;;;2.13;;
21334;SDS011;69435;52.670;13.544;2023-04-25T10:50:07;5.10;;;1.97;;
21334;SDS011;69435;52.670;13.544;2023-04-25T10:52:56;5.47;;;2.00;;
21334;SDS011;69435;52.670;13.544;2023-04-25T10:59:53;8.67;;;2.27;;
21334;SDS011;69435;52.670;13.544;2023-04-25T11:09:53;5.77;;;2.17;;
21334;SDS011;69435;52.670;13.544;2023-04-25T11:12:48;5.30;;;2.03;;
21334;SDS011;69435;52.670;13.544;2023-04-25T11:15:44;5.90;;;1.67;;
21334;SDS011;69435;52.670;13.544;2023-04-25T11:18:43;7.07;;;2.20;;
21334;SDS011;69435;52.670;13.544;2023-04-25T11:21:42;8.17;;;2.33;;
21334;SDS011;69435;52.670;13.544;2023-04-25T11:28:08;4.20;;;1.80;;
21334;SDS011;69435;52.670;13.544;2023-04-25T11:31:02;7.63;;;2.23;;
21334;SDS011;69435;52.670;13.544;2023-04-25T11:33:56;2.40;;;1.50;;
21334;SDS011;69435;52.670;13.544;2023-04-25T11:36:50;7.33;;;2.17;;
21334;SDS011;69435;52.670;13.544;2023-04-25T11:43:04;6.03;;;1.73;;
21334;SDS011;69435;52.670;13.544;2023-04-25T11:45:56;2.93;;;1.60;;
21334;SDS011;69435;52.670;13.544;2023-04-25T11:48:47;2.43;;;1.70;;
21334;SDS011;69435;52.670;13.544;2023-04-25T11:51:39;6.20;;;1.80;;
21334;SDS011;69435;52.670;13.544;2023-04-25T11:54:35;3.57;;;1.93;;
21334;SDS011;69435;52.670;13.544;2023-04-25T11:57:37;8.17;;;2.87;;
21334;SDS011;69435;52.670;13.544;2023-04-25T12:00:52;8.50;;;1.77;;
21334;SDS011;69435;52.670;13.544;2023-04-25T12:21:54;1.90;;;1.30;;
21334;SDS011;69435;52.670;13.544;2023-04-25T12:24:44;5.77;;;2.00;;
21334;SDS011;69435;52.670;13.544;2023-04-25T12:27:44;5.50;;;1.70;;
21334;SDS011;69435;52.670;13.544;2023-04-25T12:34:00;7.77;;;1.90;;
21334;SDS011;69435;52.670;13.544;2023-04-25T12:36:48;3.70;;;1.60;;
21334;SDS011;69435;52.670;13.544;2023-04-25T12:39:51;4.33;;;1.50;;
21334;SDS011;69435;52.670;13.544;2023-04-25T12:46:28;4.77;;;2.17;;
21334;SDS011;69435;52.670;13.544;2023-04-25T12:49:16;4.97;;;1.70;;
21334;SDS011;69435;52.670;13.544;2023-04-25T12:52:04;5.03;;;2.13;;
21334;SDS011;69435;52.670;13.544;2023-04-25T12:54:50;8.60;;;2.20;;
21334;SDS011;69435;52.670;13.544;2023-04-25T13:00:57;5.33;;;2.00;;
21334;SDS011;69435;52.670;13.544;2023-04-25T13:04:23;5.50;;;2.23;;
21334;SDS011;69435;52.670;13.544;2023-04-25T13:10:07;5.03;;;2.13;;
21334;SDS011;69435;52.670;13.544;2023-04-25T13:13:01;6.83;;;2.17;;
21334;SDS011;69435;52.670;13.544;2023-04-25T13:16:12;5.20;;;2.10;;
21334;SDS011;69435;52.670;13.544;2023-04-25T13:23:23;5.20;;;2.17;;
21334;SDS011;69435;52.670;13.544;2023-04-25T13:26:20;6.37;;;1.50;;
21334;SDS011;69435;52.670;13.544;2023-04-25T13:29:27;7.50;;;1.97;;
21334;SDS011;69435;52.670;13.544;2023-04-25T13:32:58;6.23;;;2.27;;
21334;SDS011;69435;52.670;13.544;2023-04-25T13:35:49;5.63;;;1.90;;
21334;SDS011;69435;52.670;13.544;2023-04-25T13:42:54;5.80;;;2.40;;
21334;SDS011;69435;52.670;13.544;2023-04-25T13:45:52;5.93;;;2.20;;
21334;SDS011;69435;52.670;13.544;2023-04-25T13:48:54;3.20;;;1.80;;
21334;SDS011;69435;52.670;13.544;2023-04-25T13:51:44;4.53;;;1.60;;
21334;SDS011;69435;52.670;13.544;2023-04-25T13:54:32;5.50;;;1.77;;
21334;SDS011;69435;52.670;13.544;2023-04-25T13:57:33;3.63;;;1.93;;
21334;SDS011;69435;52.670;13.544;2023-04-25T14:00:22;7.00;;;2.03;;
21334;SDS011;69435;52.670;13.544;2023-04-25T14:03:15;8.80;;;2.07;;
21334;SDS011;69435;52.670;13.544;2023-04-25T14:06:05;3.37;;;1.80;;
21334;SDS011;69435;52.670;13.544;2023-04-25T14:08:52;2.63;;;1.57;;
21334;SDS011;69435;52.670;13.544;2023-04-25T14:11:40;4.37;;;1.63;;
21334;SDS011;69435;52.670;13.544;2023-04-25T14:14:26;4.07;;;1.50;;
21334;SDS011;69435;52.670;13.544;2023-04-25T14:17:14;5.83;;;1.97;;
21334;SDS011;69435;52.670;13.544;2023-04-25T14:20:00;3.77;;;1.70;;
21334;SDS011;69435;52.670;13.544;2023-04-25T14:22:46;8.00;;;2.00;;
21334;SDS011;69435;52.670;13.544;2023-04-25T14:32:04;6.63;;;2.47;;
21334;SDS011;69435;52.670;13.544;2023-04-25T14:54:24;6.10;;;1.90;;
21334;SDS011;69435;52.670;13.544;2023-04-25T14:57:26;3.00;;;1.57;;
21334;SDS011;69435;52.670;13.544;2023-04-25T15:04:24;4.10;;;1.47;;
21334;SDS011;69435;52.670;13.544;2023-04-25T15:18:01;16.97;;;8.73;;
21334;SDS011;69435;52.670;13.544;2023-04-25T15:21:44;10.50;;;2.80;;
21334;SDS011;69435;52.670;13.544;2023-04-25T15:28:01;4.23;;;1.60;;
21334;SDS011;69435;52.670;13.544;2023-04-25T15:39:23;3.20;;;1.00;;
21334;SDS011;69435;52.670;13.544;2023-04-25T15:46:16;2.47;;;0.90;;
21334;SDS011;69435;52.670;13.544;2023-04-25T15:52:13;4.00;;;1.20;;
21334;SDS011;69435;52.670;13.544;2023-04-25T16:02:05;5.60;;;1.33;;
21334;SDS011;69435;52.670;13.544;2023-04-25T16:05:19;4.43;;;1.37;;
21334;SDS011;69435;52.670;13.544;2023-04-25T16:11:38;3.00;;;1.03;;
21334;SDS011;69435;52.670;13.544;2023-04-25T16:14:43;2.87;;;1.10;;
21334;SDS011;69435;52.670;13.544;2023-04-25T16:18:00;4.93;;;1.50;;
21334;SDS011;69435;52.670;13.544;2023-04-25T16:21:17;5.63;;;1.40;;
21334;SDS011;69435;52.670;13.544;2023-04-25T16:24:20;3.80;;;1.50;;
21334;SDS011;69435;52.670;13.544;2023-04-25T16:27:23;3.13;;;0.93;;
21334;SDS011;69435;52.670;13.544;2023-04-25T16:30:10;7.20;;;1.43;;
21334;SDS011;69435;52.670;13.544;2023-04-25T16:36:18;2.60;;;1.10;;
21334;SDS011;69435;52.670;13.544;2023-04-25T16:42:25;1.60;;;1.03;;
21334;SDS011;69435;52.670;13.544;2023-04-25T16:51:42;4.20;;;1.10;;
21334;SDS011;69435;52.670;13.544;2023-04-25T16:54:37;3.13;;;1.20;;
21334;SDS011;69435;52.670;13.544;2023-04-25T16:57:39;3.63;;;0.93;;
21334;SDS011;69435;52.670;13.544;2023-04-25T17:00:29;2.00;;;1.03;;
21334;SDS011;69435;52.670;13.544;2023-04-25T17:03:47;2.73;;;1.50;;
21334;SDS011;69435;52.670;13.544;2023-04-25T17:06:57;1.83;;;1.17;;
21334;SDS011;69435;52.670;13.544;2023-04-25T17:13:09;2.80;;;1.37;;
21334;SDS011;69435;52.670;13.544;2023-04-25T17:16:17;2.10;;;0.93;;
21334;SDS011;69435;52.670;13.544;2023-04-25T17:19:09;3.87;;;1.43;;
21334;SDS011;69435;52.670;13.544;2023-04-25T17:26:13;1.97;;;1.40;;
21334;SDS011;69435;52.670;13.544;2023-04-25T17:29:38;4.30;;;1.30;;
21334;SDS011;69435;52.670;13.544;2023-04-25T17:33:08;2.70;;;0.83;;
21334;SDS011;69435;52.670;13.544;2023-04-25T17:35:56;3.03;;;1.53;;
21334;SDS011;69435;52.670;13.544;2023-04-25T17:38:45;4.07;;;1.27;;
21334;SDS011;69435;52.670;13.544;2023-04-25T17:41:36;3.03;;;1.07;;
21334;SDS011;69435;52.670;13.544;2023-04-25T17:44:32;3.90;;;1.17;;
21334;SDS011;69435;52.670;13.544;2023-04-25T17:47:19;2.93;;;1.00;;
21334;SDS011;69435;52.670;13.544;2023-04-25T17:50:07;2.73;;;1.13;;
21334;SDS011;69435;52.670;13.544;2023-04-25T17:53:06;4.23;;;1.20;;
21334;SDS011;69435;52.670;13.544;2023-04-25T17:55:56;7.07;;;1.27;;
21334;SDS011;69435;52.670;13.544;2023-04-25T17:58:46;1.83;;;1.10;;
21334;SDS011;69435;52.670;13.544;2023-04-25T18:01:33;3.00;;;1.10;;
21334;SDS011;69435;52.670;13.544;2023-04-25T18:04:29;3.83;;;1.23;;
21334;SDS011;69435;52.670;13.544;2023-04-25T18:07:27;5.43;;;1.67;;
21334;SDS011;69435;52.670;13.544;2023-04-25T18:10:23;3.83;;;1.43;;
21334;SDS011;69435;52.670;13.544;2023-04-25T18:13:13;6.13;;;1.87;;
21334;SDS011;69435;52.670;13.544;2023-04-25T18:16:04;3.03;;;1.20;;
21334;SDS011;69435;52.670;13.544;2023-04-25T18:19:09;3.43;;;1.40;;
21334;SDS011;69435;52.670;13.544;2023-04-25T18:22:07;2.87;;;1.13;;
21334;SDS011;69435;52.670;13.544;2023-04-25T18:24:59;3.43;;;1.37;;
21334;SDS011;69435;52.670;13.544;2023-04-25T18:27:55;2.70;;;1.50;;
21334;SDS011;69435;52.670;13.544;2023-04-25T18:30:52;4.77;;;1.43;;
21334;SDS011;69435;52.670;13.544;2023-04-25T18:33:41;4.27;;;2.23;;
21334;SDS011;69435;52.670;13.544;2023-04-25T18:36:27;2.30;;;1.43;;
21334;SDS011;69435;52.670;13.544;2023-04-25T18:39:21;4.23;;;1.50;;
21334;SDS011;69435;52.670;13.544;2023-04-25T18:42:24;4.87;;;1.30;;
21334;SDS011;69435;52.670;13.544;2023-04-25T18:45:14;4.20;;;1.37;;
21334;SDS011;69435;52.670;13.544;2023-04-25T18:48:05;7.77;;;1.57;;
21334;SDS011;69435;52.670;13.544;2023-04-25T18:50:57;2.47;;;1.07;;
21334;SDS011;69435;52.670;13.544;2023-04-25T18:53:47;3.00;;;1.40;;
21334;SDS011;69435;52.670;13.544;2023-04-25T18:56:44;2.17;;;1.00;;
21334;SDS011;69435;52.670;13.544;2023-04-25T18:59:32;1.73;;;1.50;;
21334;SDS011;69435;52.670;13.544;2023-04-25T19:02:21;2.50;;;1.43;;
21334;SDS011;69435;52.670;13.544;2023-04-25T19:05:10;4.93;;;1.47;;
21334;SDS011;69435;52.670;13.544;2023-04-25T19:08:04;2.33;;;1.37;;
21334;SDS011;69435;52.670;13.544;2023-04-25T19:10:53;2.70;;;1.50;;
21334;SDS011;69435;52.670;13.544;2023-04-25T19:13:50;2.50;;;1.00;;
21334;SDS011;69435;52.670;13.544;2023-04-25T19:16:43;4.93;;;2.03;;
21334;SDS011;69435;52.670;13.544;2023-04-25T19:27:10;7.27;;;1.33;;
21334;SDS011;69435;52.670;13.544;2023-04-25T19:30:04;3.57;;;1.57;;
21334;SDS011;69435;52.670;13.544;2023-04-25T19:35:45;2.47;;;1.57;;
21334;SDS011;69435;52.670;13.544;2023-04-25T19:39:06;1.60;;;1.23;;
21334;SDS011;69435;52.670;13.544;2023-04-25T19:41:56;4.10;;;1.33;;
21334;SDS011;69435;52.670;13.544;2023-04-25T19:44:43;2.57;;;1.50;;
21334;SDS011;69435;52.670;13.544;2023-04-25T19:47:30;3.13;;;1.43;;
21334;SDS011;69435;52.670;13.544;2023-04-25T19:50:25;2.03;;;1.30;;
21334;SDS011;69435;52.670;13.544;2023-04-25T19:53:13;9.50;;;1.27;;
21334;SDS011;69435;52.670;13.544;2023-04-25T19:56:08;4.37;;;1.30;;
21334;SDS011;69435;52.670;13.544;2023-04-25T19:59:08;4.70;;;1.67;;
21334;SDS011;69435;52.670;13.544;2023-04-25T20:01:54;2.07;;;1.27;;
21334;SDS011;69435;52.670;13.544;2023-04-25T20:04:41;2.37;;;1.23;;
21334;SDS011;69435;52.670;13.544;2023-04-25T20:07:28;5.40;;;1.50;;
21334;SDS011;69435;52.670;13.544;2023-04-25T20:10:21;6.20;;;1.77;;
21334;SDS011;69435;52.670;13.544;2023-04-25T20:13:30;5.83;;;1.73;;
21334;SDS011;69435;52.670;13.544;2023-04-25T20:16:43;3.10;;;1.70;;
21334;SDS011;69435;52.670;13.544;2023-04-25T20:19:49;3.43;;;1.50;;
21334;SDS011;69435;52.670;13.544;2023-04-25T20:22:38;1.97;;;1.30;;
21334;SDS011;69435;52.670;13.544;2023-04-25T20:25:27;3.87;;;1.43;;
21334;SDS011;69435;52.670;13.544;2023-04-25T20:28:17;2.90;;;1.60;;
21334;SDS011;69435;52.670;13.544;2023-04-25T20:31:09;3.77;;;1.73;;
21334;SDS011;69435;52.670;13.544;2023-04-25T20:33:57;4.93;;;1.70;;
21334;SDS011;69435;52.670;13.544;2023-04-25T20:37:00;1.37;;;1.27;;
21334;SDS011;69435;52.670;13.544;2023-04-25T20:39:47;5.53;;;1.70;;
21334;SDS011;69435;52.670;13.544;2023-04-25T20:42:33;7.57;;;1.80;;
21334;SDS011;69435;52.670;13.544;2023-04-25T20:45:25;4.70;;;1.37;;
21334;SDS011;69435;52.670;13.544;2023-04-25T20:48:16;2.00;;;1.17;;
21334;SDS011;69435;52.670;13.544;2023-04-25T20:51:02;3.23;;;1.30;;
21334;SDS011;69435;52.670;13.544;2023-04-25T20:53:51;9.13;;;1.53;;
21334;SDS011;69435;52.670;13.544;2023-04-25T20:56:37;4.60;;;1.73;;
21334;SDS011;69435;52.670;13.544;2023-04-25T20:59:23;2.73;;;0.93;;
21334;SDS011;69435;52.670;13.544;2023-04-25T21:02:11;4.43;;;1.00;;
21334;SDS011;69435;52.670;13.544;2023-04-25T21:05:03;3.23;;;1.57;;
21334;SDS011;69435;52.670;13.544;2023-04-25T21:07:53;3.83;;;1.20;;
21334;SDS011;69435;52.670;13.544;2023-04-25T21:10:42;5.43;;;1.63;;
21334;SDS011;69435;52.670;13.544;2023-04-25T21:13:29;7.43;;;1.37;;
21334;SDS011;69435;52.670;13.544;2023-04-25T21:19:13;6.60;;;1.77;;
21334;SDS011;69435;52.670;13.544;2023-04-25T21:21:59;3.80;;;1.60;;
21334;SDS011;69435;52.670;13.544;2023-04-25T21:24:46;7.53;;;1.50;;
21334;SDS011;69435;52.670;13.544;2023-04-25T21:27:35;3.07;;;1.37;;
21334;SDS011;69435;52.670;13.544;2023-04-25T21:30:23;4.20;;;1.43;;
21334;SDS011;69435;52.670;13.544;2023-04-25T21:33:12;5.20;;;1.80;;
21334;SDS011;69435;52.670;13.544;2023-04-25T21:35:58;2.20;;;1.30;;
21334;SDS011;69435;52.670;13.544;2023-04-25T21:38:44;4.43;;;1.30;;
21334;SDS011;69435;52.670;13.544;2023-04-25T21:41:29;4.73;;;1.43;;
21334;SDS011;69435;52.670;13.544;2023-04-25T21:44:16;4.47;;;1.27;;
21334;SDS011;69435;52.670;13.544;2023-04-25T21:47:02;4.20;;;1.20;;
21334;SDS011;69435;52.670;13.544;2023-04-25T21:49:49;2.93;;;1.40;;
21334;SDS011;69435;52.670;13.544;2023-04-25T21:52:40;3.70;;;1.23;;
21334;SDS011;69435;52.670;13.544;2023-04-25T21:55:26;3.67;;;1.33;;
21334;SDS011;69435;52.670;13.544;2023-04-25T21:58:12;3.27;;;1.77;;
21334;SDS011;69435;52.670;13.544;2023-04-25T22:01:00;1.37;;;1.00;;
21334;SDS011;69435;52.670;13.544;2023-04-25T22:06:56;4.67;;;1.37;;
21334;SDS011;69435;52.670;13.544;2023-04-25T22:09:45;2.83;;;1.10;;
21334;SDS011;69435;52.670;13.544;2023-04-25T22:12:32;2.83;;;1.30;;
21334;SDS011;69435;52.670;13.544;2023-04-25T22:15:19;4.17;;;1.10;;
21334;SDS011;69435;52.670;13.544;2023-04-25T22:18:11;4.53;;;1.27;;
21334;SDS011;69435;52.670;13.544;2023-04-25T22:21:00;4.03;;;1.53;;
21334;SDS011;69435;52.670;13.544;2023-04-25T22:23:46;5.93;;;1.90;;
21334;SDS011;69435;52.670;13.544;2023-04-25T22:26:47;3.53;;;1.27;;
21334;SDS011;69435;52.670;13.544;2023-04-25T22:29:33;3.27;;;1.10;;
21334;SDS011;69435;52.670;13.544;2023-04-25T22:32:22;5.87;;;1.37;;
21334;SDS011;69435;52.670;13.544;2023-04-25T22:35:10;3.07;;;1.00;;
21334;SDS011;69435;52.670;13.544;2023-04-25T22:37:57;4.63;;;1.20;;
21334;SDS011;69435;52.670;13.544;2023-04-25T22:40:43;7.83;;;1.70;;
21334;SDS011;69435;52.670;13.544;2023-04-25T22:43:32;2.90;;;1.60;;
21334;SDS011;69435;52.670;13.544;2023-04-25T22:46:18;5.50;;;1.43;;
21334;SDS011;69435;52.670;13.544;2023-04-25T22:49:07;5.03;;;1.47;;
21334;SDS011;69435;52.670;13.544;2023-04-25T22:51:57;4.23;;;1.13;;
21334;SDS011;69435;52.670;13.544;2023-04-25T22:54:48;3.10;;;1.43;;
21334;SDS011;69435;52.670;13.544;2023-04-25T22:57:35;5.77;;;2.23;;
21334;SDS011;69435;52.670;13.544;2023-04-25T23:00:25;3.57;;;1.40;;
21334;SDS011;69435;52.670;13.544;2023-04-25T23:03:14;3.27;;;1.20;;
21334;SDS011;69435;52.670;13.544;2023-04-25T23:06:00;8.67;;;1.47;;
21334;SDS011;69435;52.670;13.544;2023-04-25T23:11:59;3.73;;;1.30;;
21334;SDS011;69435;52.670;13.544;2023-04-25T23:14:49;6.90;;;1.40;;
21334;SDS011;69435;52.670;13.544;2023-04-25T23:17:36;2.53;;;1.13;;
21334;SDS011;69435;52.670;13.544;2023-04-25T23:20:22;3.30;;;1.30;;
21334;SDS011;69435;52.670;13.544;2023-04-25T23:23:08;3.23;;;1.70;;
21334;SDS011;69435;52.670;13.544;2023-04-25T23:25:55;5.27;;;1.40;;
21334;SDS011;69435;52.670;13.544;2023-04-25T23:28:43;3.97;;;1.27;;
21334;SDS011;69435;52.670;13.544;2023-04-25T23:34:46;4.27;;;1.50;;
21334;SDS011;69435;52.670;13.544;2023-04-25T23:37:34;4.70;;;1.53;;
21334;SDS011;69435;52.670;13.544;2023-04-25T23:40:21;6.70;;;1.80;;
21334;SDS011;69435;52.670;13.544;2023-04-25T23:43:08;5.00;;;1.73;;
21334;SDS011;69435;52.670;13.544;2023-04-25T23:45:55;7.70;;;2.23;;
21334;SDS011;69435;52.670;13.544;2023-04-25T23:48:41;6.10;;;1.90;;
21334;SDS011;69435;52.670;13.544;2023-04-25T23:51:28;2.97;;;1.67;;
21334;SDS011;69435;52.670;13.544;2023-04-25T23:54:27;2.13;;;1.40;;
21334;SDS011;69435;52.670;13.544;2023-04-25T23:57:15;5.90;;;2.03;;
